Time;durP1;ratioP1;P1;durP2;ratioP2;P2;SDS_P1;SDS_P2;PMS_P1;PMS_P2;Temp;Humidity;BMP_temperature;BMP_pressure;BME280_temperature;BME280_humidity;BME280_pressure;Samples;Min_cycle;Max_cycle;Signal;HPM_P1;HPM_P2
2023/01/28 00:01:27;;;;;;;11.85;11.15;;;;;;;;;;4997214;28;20911;-47
2023/01/28 00:03:52;;;;;;;12.18;11.48;;;;;;;;;;4992956;28;20525;-48
2023/01/28 00:06:18;;;;;;;12.57;11.88;;;;;;;;;;4993348;28;20146;-47
2023/01/28 00:08:43;;;;;;;11.82;11.13;;;;;;;;;;4994842;28;20452;-47
2023/01/28 00:11:10;;;;;;;12.77;12.00;;;;;;;;;;4995994;28;20034;-47
2023/01/28 00:13:36;;;;;;;11.60;10.90;;;;;;;;;;4994901;28;20038;-46
2023/01/28 00:16:03;;;;;;;11.52;10.82;;;;;;;;;;4994596;28;20092;-47
2023/01/28 00:18:31;;;;;;;12.25;11.43;;;;;;;;;;4995641;28;20042;-48
2023/01/28 00:21:01;;;;;;;12.10;11.40;;;;;;;;;;4993672;28;20045;-50
2023/01/28 00:23:32;;;;;;;12.32;11.43;;;;;;;;;;4994936;28;20033;-49
2023/01/28 00:25:59;;;;;;;12.23;11.50;;;;;;;;;;4995871;28;20434;-46
2023/01/28 00:28:24;;;;;;;11.38;10.68;;;;;;;;;;4997749;28;20037;-46
2023/01/28 00:30:50;;;;;;;11.80;11.00;;;;;;;;;;4996269;28;20033;-50
2023/01/28 00:33:15;;;;;;;11.88;11.18;;;;;;;;;;4994473;28;20057;-49
2023/01/28 00:35:41;;;;;;;12.43;11.68;;;;;;;;;;4995041;28;20064;-50
2023/01/28 00:38:07;;;;;;;11.43;10.73;;;;;;;;;;4994391;28;20056;-46
2023/01/28 00:40:33;;;;;;;11.80;11.10;;;;;;;;;;4992501;28;20655;-50
2023/01/28 00:42:58;;;;;;;12.25;11.55;;;;;;;;;;4993136;28;20121;-50
2023/01/28 00:45:23;;;;;;;11.40;10.70;;;;;;;;;;4997340;28;20060;-46
2023/01/28 00:47:49;;;;;;;11.40;10.70;;;;;;;;;;4999864;28;20123;-49
2023/01/28 00:50:14;;;;;;;11.40;10.70;;;;;;;;;;4996445;28;20069;-47
2023/01/28 00:52:40;;;;;;;11.95;11.25;;;;;;;;;;4996343;28;20091;-46
2023/01/28 00:55:06;;;;;;;10.77;10.15;;;;;;;;;;5007232;28;20026;-46
2023/01/28 00:57:32;;;;;;;11.30;10.60;;;;;;;;;;4998111;28;20038;-46
2023/01/28 00:59:58;;;;;;;12.18;11.48;;;;;;;;;;4995979;28;20042;-46
2023/01/28 01:02:24;;;;;;;11.52;10.82;;;;;;;;;;4995649;28;20042;-46
2023/01/28 01:04:58;;;;;;;11.88;11.18;;;;;;;;;;4998351;28;20537;-47
2023/01/28 01:07:40;;;;;;;11.20;10.50;;;;;;;;;;4998744;28;20038;-49
2023/01/28 01:10:13;;;;;;;10.80;10.15;;;;;;;;;;5001605;28;20368;-48
2023/01/28 01:12:39;;;;;;;11.00;10.30;;;;;;;;;;4999884;28;20287;-50
2023/01/28 01:15:09;;;;;;;11.43;10.73;;;;;;;;;;4997995;28;20117;-47
2023/01/28 01:17:38;;;;;;;12.68;11.88;;;;;;;;;;4998005;28;20034;-47
2023/01/28 01:20:05;;;;;;;11.23;10.52;;;;;;;;;;4999624;28;20065;-47
2023/01/28 01:22:35;;;;;;;12.43;11.73;;;;;;;;;;4998240;28;20075;-46
2023/01/28 01:25:02;;;;;;;10.85;10.20;;;;;;;;;;4996311;28;20092;-46
2023/01/28 01:27:28;;;;;;;11.63;10.93;;;;;;;;;;5002712;28;20034;-46
2023/01/28 01:29:54;;;;;;;11.00;10.35;;;;;;;;;;5001882;28;20112;-46
2023/01/28 01:32:21;;;;;;;10.52;9.82;;;;;;;;;;4999592;28;20523;-46
2023/01/28 01:34:47;;;;;;;10.32;9.73;;;;;;;;;;4999751;28;20034;-46
2023/01/28 01:37:12;;;;;;;10.35;9.68;;;;;;;;;;4999128;28;20037;-46
2023/01/28 01:39:37;;;;;;;11.57;10.88;;;;;;;;;;4996402;28;20158;-45
2023/01/28 01:42:03;;;;;;;10.80;10.15;;;;;;;;;;4998040;28;20029;-46
2023/01/28 01:44:58;;;;;;;11.05;10.35;;;;;;;;;;4999773;28;20034;-46
2023/01/28 01:47:30;;;;;;;11.32;10.63;;;;;;;;;;4996718;28;20106;-46
2023/01/28 01:49:59;;;;;;;11.35;10.52;;;;;;;;;;4997381;28;20507;-48
2023/01/28 01:52:29;;;;;;;11.77;10.93;;;;;;;;;;4997767;28;20038;-59
2023/01/28 01:54:58;;;;;;;11.50;10.80;;;;;;;;;;4995427;28;20342;-59
2023/01/28 01:57:29;;;;;;;10.60;9.93;;;;;;;;;;4995773;28;20262;-58
2023/01/28 02:00:04;;;;;;;11.00;10.30;;;;;;;;;;4996154;28;20038;-59
2023/01/28 02:02:33;;;;;;;11.32;10.63;;;;;;;;;;4997457;28;20030;-59
2023/01/28 02:05:00;;;;;;;10.27;9.68;;;;;;;;;;4999106;28;20476;-58
2023/01/28 02:07:25;;;;;;;10.65;10.02;;;;;;;;;;4997572;28;20022;-59
2023/01/28 02:09:51;;;;;;;10.77;10.07;;;;;;;;;;5004731;28;20403;-59
2023/01/28 02:12:21;;;;;;;11.07;10.38;;;;;;;;;;4998337;28;20026;-58
2023/01/28 02:14:55;;;;;;;10.68;10.05;;;;;;;;;;4997076;28;20034;-59
2023/01/28 02:17:21;;;;;;;10.13;9.52;;;;;;;;;;4995523;28;20034;-58
2023/01/28 02:19:59;;;;;;;11.32;10.52;;;;;;;;;;4994956;28;20477;-59
2023/01/28 02:22:55;;;;;;;10.63;9.93;;;;;;;;;;4996401;28;20038;-58
2023/01/28 02:25:40;;;;;;;10.15;9.45;;;;;;;;;;4994453;28;20069;-59
2023/01/28 02:28:08;;;;;;;11.15;10.45;;;;;;;;;;4997910;28;20114;-58
2023/01/28 02:30:50;;;;;;;9.88;9.27;;;;;;;;;;4997490;28;20037;-59
2023/01/28 02:33:39;;;;;;;9.82;9.23;;;;;;;;;;4997788;28;20038;-58
2023/01/28 02:36:15;;;;;;;10.15;9.50;;;;;;;;;;4999273;28;20459;-58
2023/01/28 02:38:48;;;;;;;9.80;9.20;;;;;;;;;;4997161;28;20029;-58
2023/01/28 02:41:31;;;;;;;11.02;10.32;;;;;;;;;;4997176;28;20030;-59
2023/01/28 02:43:56;;;;;;;10.60;10.00;;;;;;;;;;4997107;28;20048;-58
2023/01/28 02:49:10;;;;;;;10.27;9.45;;;;;;;;;;4997250;28;20038;-58
2023/01/28 02:51:47;;;;;;;10.25;9.55;;;;;;;;;;4997249;28;20056;-58
2023/01/28 02:54:43;;;;;;;10.70;10.00;;;;;;;;;;4997028;28;20088;-58
2023/01/28 02:57:21;;;;;;;9.90;9.30;;;;;;;;;;4997381;28;20053;-57
2023/01/28 02:59:51;;;;;;;10.35;9.75;;;;;;;;;;4994628;28;20045;-58
2023/01/28 03:02:33;;;;;;;10.30;9.63;;;;;;;;;;4994701;28;20025;-58
2023/01/28 03:05:10;;;;;;;10.70;10.00;;;;;;;;;;4997028;28;20105;-57
2023/01/28 03:07:37;;;;;;;11.68;10.98;;;;;;;;;;4977884;28;20132;-58
2023/01/28 03:10:06;;;;;;;10.93;10.25;;;;;;;;;;4996012;28;20061;-58
2023/01/28 03:38:00;;;;;;;10.93;10.23;;;;;;;;;;4994326;28;20139;-58
2023/01/28 03:40:26;;;;;;;10.75;10.07;;;;;;;;;;4992752;28;20038;-58
2023/01/28 03:42:53;;;;;;;10.93;10.23;;;;;;;;;;4993757;28;20146;-59
2023/01/28 03:45:20;;;;;;;11.15;10.45;;;;;;;;;;4992733;28;20033;-58
2023/01/28 03:47:45;;;;;;;10.93;10.23;;;;;;;;;;4992952;28;20042;-58
2023/01/28 03:50:11;;;;;;;10.80;10.15;;;;;;;;;;4993842;28;20060;-59
2023/01/28 03:52:36;;;;;;;11.55;10.75;;;;;;;;;;4982953;28;20038;-60
2023/01/28 03:55:12;;;;;;;10.15;9.55;;;;;;;;;;4996447;28;20470;-59
2023/01/28 03:57:37;;;;;;;10.35;9.65;;;;;;;;;;4996275;28;20041;-59
2023/01/28 04:00:03;;;;;;;12.15;11.32;;;;;;;;;;4996517;28;20045;-58
2023/01/28 04:02:28;;;;;;;11.80;11.07;;;;;;;;;;4994529;28;20777;-46
2023/01/28 04:04:54;;;;;;;10.77;10.10;;;;;;;;;;4994148;28;20121;-60
2023/01/28 04:07:20;;;;;;;10.32;9.73;;;;;;;;;;4980051;28;20026;-46
2023/01/28 04:09:45;;;;;;;9.52;8.93;;;;;;;;;;4997682;28;20488;-48
2023/01/28 04:12:11;;;;;;;10.45;9.77;;;;;;;;;;4992269;28;20026;-47
2023/01/28 04:14:38;;;;;;;10.60;9.90;;;;;;;;;;4994980;28;20680;-58
2023/01/28 04:17:06;;;;;;;10.75;10.13;;;;;;;;;;4997075;28;20500;-46
2023/01/28 04:19:36;;;;;;;10.65;9.95;;;;;;;;;;4994348;28;20042;-59
2023/01/28 04:22:03;;;;;;;10.32;9.73;;;;;;;;;;4995833;28;20172;-49
2023/01/28 04:24:28;;;;;;;11.45;10.65;;;;;;;;;;4995422;28;20045;-47
2023/01/28 04:26:54;;;;;;;11.63;10.82;;;;;;;;;;4997561;28;20027;-46
2023/01/28 04:29:19;;;;;;;10.40;9.80;;;;;;;;;;4992989;28;20034;-46
2023/01/28 04:31:44;;;;;;;10.57;9.95;;;;;;;;;;4996245;28;20035;-46
2023/01/28 04:34:10;;;;;;;10.60;10.00;;;;;;;;;;4995701;28;20038;-46
2023/01/28 04:36:35;;;;;;;10.88;10.18;;;;;;;;;;4996003;28;20037;-46
2023/01/28 04:39:00;;;;;;;11.30;10.60;;;;;;;;;;4995432;28;20044;-46
2023/01/28 04:41:26;;;;;;;10.70;10.02;;;;;;;;;;4993967;28;20030;-48
2023/01/28 04:43:51;;;;;;;10.65;9.98;;;;;;;;;;4996187;28;20153;-48
2023/01/28 04:46:16;;;;;;;11.30;10.57;;;;;;;;;;4994751;28;20453;-59
2023/01/28 04:48:42;;;;;;;10.02;9.43;;;;;;;;;;4994401;28;20589;-47
2023/01/28 04:51:07;;;;;;;10.90;10.20;;;;;;;;;;4994254;28;20044;-46
2023/01/28 04:53:33;;;;;;;11.10;10.40;;;;;;;;;;4995561;28;20035;-59
2023/01/28 04:55:58;;;;;;;11.30;10.60;;;;;;;;;;4993215;28;20461;-58
2023/01/28 04:58:24;;;;;;;10.90;10.20;;;;;;;;;;4995523;28;20372;-46
2023/01/28 05:00:54;;;;;;;10.95;10.25;;;;;;;;;;4995631;28;20105;-47
2023/01/28 05:03:20;;;;;;;10.68;10.00;;;;;;;;;;4995095;28;20026;-48
2023/01/28 05:05:45;;;;;;;11.27;10.57;;;;;;;;;;4997181;28;20049;-48
2023/01/28 05:08:10;;;;;;;10.43;9.82;;;;;;;;;;4999616;28;20109;-46
2023/01/28 05:10:36;;;;;;;11.93;11.20;;;;;;;;;;4995268;28;20030;-49
2023/01/28 05:13:01;;;;;;;11.20;10.50;;;;;;;;;;4996639;28;20378;-59
2023/01/28 05:15:26;;;;;;;11.00;10.30;;;;;;;;;;4994256;28;20268;-59
2023/01/28 05:17:55;;;;;;;11.15;10.45;;;;;;;;;;4993257;28;20454;-60
2023/01/28 05:20:20;;;;;;;11.07;10.40;;;;;;;;;;4993755;28;20041;-48
2023/01/28 05:22:45;;;;;;;10.90;10.23;;;;;;;;;;5000866;28;20455;-46
2023/01/28 05:25:11;;;;;;;10.73;10.02;;;;;;;;;;4994024;28;20431;-58
2023/01/28 05:27:36;;;;;;;10.43;9.82;;;;;;;;;;4994273;28;20522;-47
2023/01/28 05:30:01;;;;;;;10.30;9.70;;;;;;;;;;4994731;28;20460;-58
2023/01/28 05:32:27;;;;;;;11.93;10.95;;;;;;;;;;5000651;28;20030;-58
2023/01/28 05:34:52;;;;;;;10.20;9.60;;;;;;;;;;4997490;28;20037;-51
2023/01/28 05:37:17;;;;;;;9.85;9.25;;;;;;;;;;4996739;28;20376;-46
2023/01/28 05:39:43;;;;;;;10.60;10.00;;;;;;;;;;4997045;28;20030;-59
2023/01/28 05:42:08;;;;;;;10.07;9.38;;;;;;;;;;4998273;28;20038;-59
2023/01/28 05:44:35;;;;;;;10.38;9.73;;;;;;;;;;4997401;28;20110;-58
2023/01/28 05:47:00;;;;;;;11.45;10.65;;;;;;;;;;5000818;28;20034;-49
2023/01/28 05:49:25;;;;;;;10.43;9.80;;;;;;;;;;4997484;28;20053;-47
2023/01/28 05:51:51;;;;;;;9.85;9.25;;;;;;;;;;5002142;28;20121;-47
2023/01/28 05:54:17;;;;;;;10.73;10.07;;;;;;;;;;4999916;28;20034;-50
2023/01/28 05:56:43;;;;;;;10.95;10.25;;;;;;;;;;4995907;28;20112;-48
2023/01/28 05:59:10;;;;;;;10.85;10.18;;;;;;;;;;4998560;28;20734;-60
2023/01/28 06:01:35;;;;;;;9.93;9.32;;;;;;;;;;4992311;28;20104;-59
2023/01/28 06:04:01;;;;;;;10.43;9.82;;;;;;;;;;5006141;28;20022;-59
2023/01/28 06:06:26;;;;;;;10.02;9.43;;;;;;;;;;4999250;28;20723;-59
2023/01/28 06:08:51;;;;;;;11.00;10.20;;;;;;;;;;4997409;28;20046;-59
2023/01/28 06:11:17;;;;;;;10.48;9.77;;;;;;;;;;4995440;28;20510;-59
2023/01/28 06:13:42;;;;;;;11.82;10.93;;;;;;;;;;4995894;28;20030;-58
2023/01/28 06:16:07;;;;;;;11.10;10.40;;;;;;;;;;4998700;28;20041;-58
2023/01/28 06:18:33;;;;;;;10.60;10.00;;;;;;;;;;4996905;28;20065;-58
2023/01/28 06:20:59;;;;;;;10.40;9.70;;;;;;;;;;4999205;28;20299;-51
2023/01/28 06:23:25;;;;;;;10.48;9.77;;;;;;;;;;5002920;28;20034;-50
2023/01/28 06:25:56;;;;;;;11.40;10.70;;;;;;;;;;4998091;28;20038;-48
2023/01/28 06:28:23;;;;;;;10.95;10.25;;;;;;;;;;4996914;28;20034;-52
2023/01/28 06:30:49;;;;;;;9.88;9.27;;;;;;;;;;4996620;28;20116;-50
2023/01/28 06:33:14;;;;;;;9.65;9.05;;;;;;;;;;4997834;28;20405;-59
2023/01/28 06:35:40;;;;;;;10.75;10.05;;;;;;;;;;4997775;28;20034;-58
2023/01/28 06:38:06;;;;;;;10.88;10.23;;;;;;;;;;4996251;28;20037;-49
2023/01/28 06:40:31;;;;;;;10.43;9.73;;;;;;;;;;4996558;28;20062;-50
2023/01/28 06:42:56;;;;;;;10.57;9.93;;;;;;;;;;4998607;28;20040;-48
2023/01/28 06:45:22;;;;;;;10.18;9.57;;;;;;;;;;4994073;28;20033;-48
2023/01/28 06:47:47;;;;;;;10.93;10.23;;;;;;;;;;5000159;28;20151;-49
2023/01/28 06:50:12;;;;;;;11.15;10.45;;;;;;;;;;4998690;28;20037;-48
2023/01/28 06:52:38;;;;;;;10.20;9.57;;;;;;;;;;4996756;28;20478;-49
2023/01/28 06:55:04;;;;;;;10.80;10.10;;;;;;;;;;4996537;28;20045;-47
2023/01/28 06:57:29;;;;;;;10.63;9.93;;;;;;;;;;4997256;28;20037;-58
2023/01/28 06:59:54;;;;;;;11.00;10.27;;;;;;;;;;4995473;28;20030;-59
2023/01/28 07:02:20;;;;;;;9.82;9.23;;;;;;;;;;4998293;28;20026;-59
2023/01/28 07:04:45;;;;;;;10.25;9.65;;;;;;;;;;4999645;28;20045;-59
2023/01/28 07:07:10;;;;;;;9.77;9.18;;;;;;;;;;4996453;28;20038;-60
2023/01/28 07:09:36;;;;;;;10.02;9.43;;;;;;;;;;4995483;28;20049;-59
2023/01/28 07:12:04;;;;;;;9.70;9.10;;;;;;;;;;4996024;28;20034;-58
2023/01/28 07:14:30;;;;;;;10.90;10.20;;;;;;;;;;4993614;28;20128;-59
2023/01/28 07:16:55;;;;;;;10.85;10.13;;;;;;;;;;4997557;28;20106;-48
2023/01/28 07:19:20;;;;;;;10.25;9.55;;;;;;;;;;4997601;28;20117;-59
2023/01/28 07:21:46;;;;;;;10.10;9.50;;;;;;;;;;4995809;28;20433;-59
2023/01/28 07:24:11;;;;;;;10.27;9.68;;;;;;;;;;4994606;28;20060;-58
2023/01/28 07:26:36;;;;;;;9.85;9.25;;;;;;;;;;4995670;28;20030;-46
2023/01/28 07:29:02;;;;;;;10.70;10.02;;;;;;;;;;4994700;28;20096;-47
2023/01/28 07:31:27;;;;;;;10.43;9.82;;;;;;;;;;4994768;28;20045;-48
2023/01/28 07:33:53;;;;;;;10.20;9.55;;;;;;;;;;4995733;28;20030;-47
2023/01/28 07:36:18;;;;;;;10.27;9.68;;;;;;;;;;4996952;28;20384;-58
2023/01/28 07:38:43;;;;;;;9.55;8.95;;;;;;;;;;4993835;28;20037;-59
2023/01/28 07:41:09;;;;;;;10.20;9.60;;;;;;;;;;4997940;28;20038;-59
2023/01/28 07:43:34;;;;;;;9.85;9.25;;;;;;;;;;4993085;28;20030;-58
2023/01/28 07:46:00;;;;;;;9.48;8.88;;;;;;;;;;4991538;28;20126;-48
2023/01/28 07:48:26;;;;;;;10.68;9.98;;;;;;;;;;4997150;28;20040;-51
2023/01/28 07:50:51;;;;;;;10.00;9.40;;;;;;;;;;4994315;28;20288;-48
2023/01/28 07:53:17;;;;;;;9.52;8.93;;;;;;;;;;4997588;28;20054;-50
2023/01/28 07:55:42;;;;;;;10.15;9.55;;;;;;;;;;4997383;28;20062;-50
2023/01/28 07:58:10;;;;;;;10.02;9.43;;;;;;;;;;4999146;28;20045;-58
2023/01/28 08:00:37;;;;;;;10.65;9.95;;;;;;;;;;4995095;28;20048;-59
2023/01/28 08:03:11;;;;;;;11.45;10.75;;;;;;;;;;4994694;28;20026;-59
2023/01/28 08:05:48;;;;;;;9.95;9.35;;;;;;;;;;4996326;28;20057;-59
2023/01/28 08:08:14;;;;;;;9.73;9.13;;;;;;;;;;4995622;28;20029;-58
2023/01/28 08:10:40;;;;;;;10.18;9.57;;;;;;;;;;4993955;28;20038;-58
2023/01/28 08:13:06;;;;;;;10.90;10.23;;;;;;;;;;4994277;28;20100;-58
2023/01/28 08:15:32;;;;;;;9.80;9.20;;;;;;;;;;4995054;28;20045;-59
2023/01/28 08:17:59;;;;;;;10.10;9.50;;;;;;;;;;4994051;28;20034;-58
2023/01/28 08:20:26;;;;;;;10.43;9.73;;;;;;;;;;4994347;28;20032;-59
2023/01/28 08:22:51;;;;;;;10.02;9.43;;;;;;;;;;4993190;28;20046;-59
2023/01/28 08:25:18;;;;;;;10.27;9.65;;;;;;;;;;4993994;28;20033;-59
2023/01/28 08:27:43;;;;;;;10.98;10.18;;;;;;;;;;4996696;28;20049;-60
2023/01/28 08:30:09;;;;;;;10.48;9.88;;;;;;;;;;4996528;28;20376;-58
2023/01/28 08:32:35;;;;;;;10.68;10.02;;;;;;;;;;4992435;28;20888;-59
2023/01/28 08:35:00;;;;;;;10.57;9.90;;;;;;;;;;4996846;28;20045;-59
2023/01/28 08:37:26;;;;;;;10.93;10.23;;;;;;;;;;4993290;28;20377;-58
2023/01/28 08:39:51;;;;;;;10.25;9.65;;;;;;;;;;4996906;28;20130;-59
2023/01/28 08:42:16;;;;;;;11.48;10.77;;;;;;;;;;4992170;28;20062;-58
2023/01/28 08:44:42;;;;;;;9.95;9.35;;;;;;;;;;4996087;28;20128;-58
2023/01/28 08:47:07;;;;;;;10.20;9.60;;;;;;;;;;4993500;28;20109;-59
2023/01/28 08:49:32;;;;;;;10.25;9.65;;;;;;;;;;4996472;28;20030;-60
2023/01/28 08:51:58;;;;;;;9.60;9.00;;;;;;;;;;4993181;28;20037;-59
2023/01/28 08:54:23;;;;;;;10.10;9.50;;;;;;;;;;4993563;28;20030;-58
2023/01/28 08:56:50;;;;;;;10.80;10.07;;;;;;;;;;4996092;28;20034;-59
2023/01/28 08:59:15;;;;;;;10.35;9.75;;;;;;;;;;4997914;28;20041;-60
2023/01/28 09:01:41;;;;;;;10.70;10.02;;;;;;;;;;4994126;28;20620;-58
2023/01/28 09:04:06;;;;;;;10.57;9.88;;;;;;;;;;4994682;28;20025;-59
2023/01/28 09:06:31;;;;;;;10.27;9.68;;;;;;;;;;4998867;28;20034;-59
2023/01/28 09:09:00;;;;;;;11.00;10.30;;;;;;;;;;4997017;28;20037;-59
2023/01/28 09:11:27;;;;;;;10.40;9.80;;;;;;;;;;4998232;28;20038;-58
2023/01/28 09:13:52;;;;;;;10.45;9.85;;;;;;;;;;5000369;28;20030;-59
2023/01/28 09:16:17;;;;;;;9.80;9.20;;;;;;;;;;4998125;28;20049;-59
2023/01/28 09:18:43;;;;;;;10.00;9.40;;;;;;;;;;4999414;28;20049;-59
2023/01/28 09:21:08;;;;;;;11.05;10.35;;;;;;;;;;4999530;28;20204;-58
2023/01/28 09:23:37;;;;;;;9.80;9.20;;;;;;;;;;4998503;28;20106;-59
2023/01/28 09:26:03;;;;;;;9.10;8.50;;;;;;;;;;4999956;28;20034;-58
2023/01/28 09:28:29;;;;;;;10.63;9.93;;;;;;;;;;4997631;28;20048;-59
2023/01/28 09:31:05;;;;;;;9.75;9.15;;;;;;;;;;4995945;28;20038;-60
2023/01/28 09:33:32;;;;;;;9.50;8.90;;;;;;;;;;4996424;28;20117;-59
2023/01/28 09:36:02;;;;;;;9.80;9.20;;;;;;;;;;4999057;28;20638;-59
2023/01/28 09:38:29;;;;;;;10.25;9.55;;;;;;;;;;4998415;28;20038;-59
2023/01/28 09:40:55;;;;;;;11.52;10.82;;;;;;;;;;4998672;28;20037;-59
2023/01/28 09:43:45;;;;;;;9.85;9.25;;;;;;;;;;4996991;28;20030;-59
2023/01/28 09:46:13;;;;;;;10.05;9.35;;;;;;;;;;4995529;28;20062;-60
2023/01/28 09:48:51;;;;;;;9.65;9.05;;;;;;;;;;4998656;28;20069;-60
2023/01/28 09:51:51;;;;;;;9.57;8.98;;;;;;;;;;4998088;28;20047;-60
2023/01/28 09:54:29;;;;;;;8.97;8.37;;;;;;;;;;4988675;28;20128;-59
2023/01/28 09:57:05;;;;;;;8.98;8.38;;;;;;;;;;4999667;28;20026;-60
2023/01/28 09:59:35;;;;;;;9.23;8.63;;;;;;;;;;4996848;28;20073;-59
2023/01/28 10:02:22;;;;;;;10.20;9.50;;;;;;;;;;4994745;28;20124;-59
2023/01/28 10:05:10;;;;;;;10.93;10.02;;;;;;;;;;4996994;28;20126;-59
2023/01/28 10:07:47;;;;;;;10.65;9.90;;;;;;;;;;4995668;28;20034;-59
2023/01/28 10:10:18;;;;;;;10.88;10.18;;;;;;;;;;4997705;28;20133;-59
2023/01/28 10:13:04;;;;;;;;;;;;;;;;;;4997978;28;20030;-59
2023/01/28 10:15:38;;;;;;;9.32;8.73;;;;;;;;;;5010612;28;19924;-60
2023/01/28 10:18:11;;;;;;;10.23;9.63;;;;;;;;;;4994023;28;20096;-59
2023/01/28 10:20:47;;;;;;;10.63;9.98;;;;;;;;;;4999414;28;20093;-59
2023/01/28 10:23:21;;;;;;;11.13;10.35;;;;;;;;;;4996823;28;20026;-58
2023/01/28 10:25:47;;;;;;;10.90;10.20;;;;;;;;;;4998647;28;20036;-59
2023/01/28 10:28:24;;;;;;;11.52;10.73;;;;;;;;;;4997126;28;20356;-60
2023/01/28 10:30:49;;;;;;;10.43;9.77;;;;;;;;;;4994516;28;20375;-59
2023/01/28 10:33:27;;;;;;;11.10;10.40;;;;;;;;;;4994017;28;20042;-58
2023/01/28 10:35:54;;;;;;;11.52;10.82;;;;;;;;;;4998503;28;20026;-59
2023/01/28 10:38:22;;;;;;;10.43;9.73;;;;;;;;;;5003774;28;20321;-59
2023/01/28 10:40:47;;;;;;;10.52;9.82;;;;;;;;;;4998955;28;20038;-59
2023/01/28 10:43:19;;;;;;;10.75;9.95;;;;;;;;;;4997958;28;20092;-59
2023/01/28 10:46:14;;;;;;;10.55;9.85;;;;;;;;;;5000230;28;20029;-59
2023/01/28 10:48:46;;;;;;;10.48;9.82;;;;;;;;;;4994591;28;20066;-60
2023/01/28 10:51:11;;;;;;;11.00;10.30;;;;;;;;;;4995475;28;20049;-60
2023/01/28 10:53:40;;;;;;;11.07;10.38;;;;;;;;;;4992957;28;20479;-60
2023/01/28 10:56:16;;;;;;;9.90;9.30;;;;;;;;;;4997188;28;20117;-60
2023/01/28 10:58:58;;;;;;;10.73;10.05;;;;;;;;;;4997470;28;20407;-60
2023/01/28 11:01:24;;;;;;;10.18;9.57;;;;;;;;;;4996786;28;20095;-60
2023/01/28 11:03:57;;;;;;;10.45;9.82;;;;;;;;;;4996878;28;20034;-60
2023/01/28 11:06:25;;;;;;;9.68;9.07;;;;;;;;;;4997445;28;20129;-60
2023/01/28 11:08:50;;;;;;;10.15;9.55;;;;;;;;;;4998082;28;20042;-60
2023/01/28 11:11:15;;;;;;;10.63;9.98;;;;;;;;;;4996260;28;20026;-60
2023/01/28 11:13:52;;;;;;;11.00;10.30;;;;;;;;;;4995490;28;20408;-60
2023/01/28 11:16:19;;;;;;;10.40;9.80;;;;;;;;;;4997893;28;21379;-60
2023/01/28 11:18:59;;;;;;;10.20;9.60;;;;;;;;;;4995065;28;20042;-60
2023/01/28 11:21:30;;;;;;;10.77;10.07;;;;;;;;;;4996068;28;20041;-59
2023/01/28 11:24:05;;;;;;;10.48;9.88;;;;;;;;;;4996477;28;20037;-59
2023/01/28 11:26:32;;;;;;;12.05;11.13;;;;;;;;;;4995584;28;20038;-59
2023/01/28 11:28:58;;;;;;;10.50;9.90;;;;;;;;;;4994432;28;20030;-59
2023/01/28 11:31:25;;;;;;;11.48;10.68;;;;;;;;;;4995065;28;20464;-60
2023/01/28 11:33:58;;;;;;;11.00;10.30;;;;;;;;;;4993762;28;20471;-60
2023/01/28 11:36:28;;;;;;;10.57;9.98;;;;;;;;;;4998765;28;20464;-59
2023/01/28 11:39:23;;;;;;;10.52;9.93;;;;;;;;;;4995861;28;20033;-59
2023/01/28 11:41:49;;;;;;;11.18;10.48;;;;;;;;;;4995441;28;20042;-60
2023/01/28 11:44:24;;;;;;;11.80;11.00;;;;;;;;;;4994873;28;20089;-59
2023/01/28 11:47:04;;;;;;;11.65;10.88;;;;;;;;;;4993913;28;20048;-60
2023/01/28 11:49:56;;;;;;;11.40;10.70;;;;;;;;;;4995634;28;20424;-58
2023/01/28 11:52:46;;;;;;;11.00;10.30;;;;;;;;;;4995660;28;20341;-59
2023/01/28 11:55:39;;;;;;;11.63;10.90;;;;;;;;;;4997565;28;20109;-59
2023/01/28 11:58:13;;;;;;;11.18;10.48;;;;;;;;;;4993838;28;20512;-58
2023/01/28 12:00:51;;;;;;;12.38;11.57;;;;;;;;;;4996036;28;20552;-59
2023/01/28 12:03:51;;;;;;;10.93;10.23;;;;;;;;;;4994839;28;20105;-59
2023/01/28 12:06:29;;;;;;;11.27;10.57;;;;;;;;;;4996059;28;20032;-58
2023/01/28 12:09:06;;;;;;;11.13;10.43;;;;;;;;;;4996170;28;20341;-59
2023/01/28 12:15:06;;;;;;;11.18;10.48;;;;;;;;;;4995938;28;20356;-60
2023/01/28 12:17:45;;;;;;;10.43;9.82;;;;;;;;;;4997529;28;20116;-60
2023/01/28 12:20:38;;;;;;;10.20;9.60;;;;;;;;;;4995562;28;20357;-58
2023/01/28 12:23:09;;;;;;;10.93;10.23;;;;;;;;;;4995795;28;20125;-60
2023/01/28 12:25:50;;;;;;;10.43;9.73;;;;;;;;;;4998722;28;20109;-59
2023/01/28 12:28:51;;;;;;;10.60;9.98;;;;;;;;;;4999082;28;20033;-59
2023/01/28 12:31:40;;;;;;;9.35;8.75;;;;;;;;;;4995898;28;20065;-59
2023/01/28 12:34:30;;;;;;;9.55;8.90;;;;;;;;;;4995783;28;20096;-58
2023/01/28 12:37:22;;;;;;;10.32;9.73;;;;;;;;;;4995868;28;20583;-59
2023/01/28 12:39:56;;;;;;;9.90;9.30;;;;;;;;;;4996636;28;20053;-59
2023/01/28 12:42:39;;;;;;;9.95;9.25;;;;;;;;;;4993403;28;20105;-57
2023/01/28 12:45:19;;;;;;;9.88;9.27;;;;;;;;;;4996173;28;20539;-59
2023/01/28 12:47:59;;;;;;;9.73;9.10;;;;;;;;;;4995403;28;20092;-60
2023/01/28 12:51:06;;;;;;;10.32;9.68;;;;;;;;;;4994814;28;20053;-59
2023/01/28 12:53:52;;;;;;;8.98;8.38;;;;;;;;;;4986069;28;20037;-56
2023/01/28 12:56:24;;;;;;;8.82;8.23;;;;;;;;;;4994150;28;20089;-58
2023/01/28 12:59:04;;;;;;;9.93;9.32;;;;;;;;;;5002365;28;20038;-58
2023/01/28 13:01:42;;;;;;;9.45;8.85;;;;;;;;;;5013697;28;20034;-56
2023/01/28 13:04:17;;;;;;;9.25;8.65;;;;;;;;;;4993552;28;20049;-57
2023/01/28 13:06:54;;;;;;;9.65;9.05;;;;;;;;;;4993090;28;20038;-59
2023/01/28 13:09:23;;;;;;;9.68;9.07;;;;;;;;;;4993040;28;20033;-56
2023/01/28 13:11:51;;;;;;;10.63;9.93;;;;;;;;;;4994335;28;20141;-56
2023/01/28 13:14:20;;;;;;;10.13;9.52;;;;;;;;;;4998826;28;20034;-60
2023/01/28 13:16:46;;;;;;;10.93;10.23;;;;;;;;;;4998378;28;20030;-58
2023/01/28 13:19:17;;;;;;;10.80;10.10;;;;;;;;;;4998696;28;20486;-57
2023/01/28 13:21:43;;;;;;;;;;;;;;;;;;4994884;28;20049;-58
2023/01/28 13:24:08;;;;;;;10.02;9.43;;;;;;;;;;4995652;28;19913;-59
2023/01/28 13:26:46;;;;;;;9.65;9.05;;;;;;;;;;4995743;28;20053;-59
2023/01/28 13:29:14;;;;;;;9.68;9.07;;;;;;;;;;4994353;28;20026;-59
2023/01/28 13:31:44;;;;;;;9.88;9.27;;;;;;;;;;4993875;28;20058;-60
2023/01/28 13:34:42;;;;;;;10.43;9.82;;;;;;;;;;4994945;28;20066;-58
2023/01/28 13:37:23;;;;;;;9.60;9.00;;;;;;;;;;4989579;28;20049;-59
2023/01/28 13:39:53;;;;;;;9.65;9.05;;;;;;;;;;4993587;28;20037;-59
2023/01/28 13:42:29;;;;;;;17.02;15.65;;;;;;;;;;4995266;28;20041;-56
2023/01/28 13:44:56;;;;;;;16.60;15.27;;;;;;;;;;4994687;28;20092;-58
2023/01/28 13:47:32;;;;;;;9.93;9.32;;;;;;;;;;4994106;28;20034;-59
2023/01/28 13:50:05;;;;;;;9.95;9.35;;;;;;;;;;4996513;28;20581;-55
2023/01/28 13:52:45;;;;;;;10.32;9.63;;;;;;;;;;4996422;28;20065;-55
2023/01/28 13:55:11;;;;;;;9.60;9.00;;;;;;;;;;4999024;28;20033;-55
2023/01/28 13:57:48;;;;;;;9.48;8.88;;;;;;;;;;4997057;28;20034;-53
2023/01/28 14:00:26;;;;;;;10.00;9.20;;;;;;;;;;4999088;28;20479;-57
2023/01/28 14:02:57;;;;;;;10.10;9.40;;;;;;;;;;4997713;28;20037;-57
2023/01/28 14:05:35;;;;;;;9.73;9.10;;;;;;;;;;4997701;28;20121;-61
2023/01/28 14:08:06;;;;;;;10.50;9.80;;;;;;;;;;4999593;28;20095;-57
2023/01/28 14:10:37;;;;;;;;;;;;;;;;;;4997659;28;20041;-57
2023/01/28 14:13:19;;;;;;;10.35;9.65;;;;;;;;;;4995090;28;20414;-57
2023/01/28 14:15:59;;;;;;;;;;;;;;;;;;5001248;28;20037;-58
2023/01/28 14:18:36;;;;;;;9.20;8.60;;;;;;;;;;4998317;28;19916;-54
2023/01/28 14:21:09;;;;;;;10.98;10.23;;;;;;;;;;4997594;28;20041;-57
2023/01/28 14:23:36;;;;;;;10.73;10.02;;;;;;;;;;4994940;28;20119;-56
2023/01/28 14:26:24;;;;;;;9.55;8.95;;;;;;;;;;4998710;28;20459;-56
2023/01/28 14:29:00;;;;;;;9.98;9.38;;;;;;;;;;4997223;28;20057;-49
2023/01/28 14:31:30;;;;;;;10.10;9.43;;;;;;;;;;4996514;28;20029;-56
2023/01/28 14:34:18;;;;;;;10.15;9.50;;;;;;;;;;4997834;28;20033;-57
2023/01/28 14:36:45;;;;;;;10.68;9.98;;;;;;;;;;4997853;28;20084;-46
2023/01/28 14:39:16;;;;;;;10.85;10.15;;;;;;;;;;4997367;28;20030;-48
2023/01/28 14:41:42;;;;;;;;;;;;;;;;;;4998595;28;20038;-48
2023/01/28 14:44:08;;;;;;;12.57;11.45;;;;;;;;;;4993867;28;19956;-50
2023/01/28 14:46:49;;;;;;;9.70;9.10;;;;;;;;;;4992797;28;20057;-47
2023/01/28 14:49:29;;;;;;;9.90;9.30;;;;;;;;;;4996944;28;20406;-46
2023/01/28 14:52:34;;;;;;;10.43;9.63;;;;;;;;;;4998435;28;20038;-47
2023/01/28 14:55:27;;;;;;;10.88;10.23;;;;;;;;;;4997607;28;20048;-54
2023/01/28 14:57:57;;;;;;;10.55;9.93;;;;;;;;;;4997878;28;20065;-56
2023/01/28 15:00:28;;;;;;;10.68;10.00;;;;;;;;;;4996830;28;20034;-56
2023/01/28 15:02:54;;;;;;;10.82;10.20;;;;;;;;;;4992995;28;20022;-55
2023/01/28 15:05:25;;;;;;;9.80;9.20;;;;;;;;;;4997388;28;20554;-58
2023/01/28 15:07:51;;;;;;;10.30;9.60;;;;;;;;;;4999270;28;20415;-52
2023/01/28 15:10:29;;;;;;;10.05;9.45;;;;;;;;;;4997322;28;20045;-55
2023/01/28 15:12:59;;;;;;;10.80;10.10;;;;;;;;;;4997674;28;20030;-55
2023/01/28 15:15:36;;;;;;;10.45;9.85;;;;;;;;;;4998123;28;20053;-50
2023/01/28 15:18:15;;;;;;;11.00;10.27;;;;;;;;;;4997456;28;20037;-58
2023/01/28 15:20:46;;;;;;;10.85;10.20;;;;;;;;;;4998244;28;20044;-58